createdAt,value
2018-06-28T00:02:12.031Z,101383.78
2018-06-28T00:04:40.611Z,101382.95
2018-06-28T00:07:09.247Z,101389.47
2018-06-28T00:09:38.048Z,101385.53
2018-06-28T00:12:06.691Z,101381.98
2018-06-28T00:14:35.282Z,101383.20
2018-06-28T00:17:04.260Z,101377.36
2018-06-28T00:19:32.971Z,101375.25
2018-06-28T00:22:01.735Z,101377.97
2018-06-28T00:24:31.717Z,101375.50
2018-06-28T00:27:00.407Z,101369.56
2018-06-28T00:29:29.163Z,101372.59
2018-06-28T00:31:57.891Z,101374.37
2018-06-28T00:34:26.415Z,101372.14
2018-06-28T00:36:55.095Z,101370.04
2018-06-28T00:39:24.168Z,101370.04
2018-06-28T00:41:52.801Z,101367.00
2018-06-28T00:44:21.370Z,101361.84
2018-06-28T00:46:50.358Z,101364.64
2018-06-28T00:49:18.977Z,101365.45
2018-06-28T00:51:47.654Z,101362.98
2018-06-28T00:54:16.235Z,101364.31
2018-06-28T00:56:45.059Z,101367.34
2018-06-28T00:59:13.927Z,101363.95
2018-06-28T01:01:42.495Z,101366.98
2018-06-28T01:04:11.150Z,101365.72
2018-06-28T01:06:39.963Z,101359.72
2018-06-28T01:09:10.838Z,101362.66
2018-06-28T01:11:40.087Z,101356.32
2018-06-28T01:14:08.706Z,101355.87
2018-06-28T01:16:37.742Z,101352.50
2018-06-28T01:19:06.939Z,101353.73
2018-06-28T01:21:35.681Z,101347.91
2018-06-28T01:24:04.420Z,101350.95
2018-06-28T01:26:33.325Z,101348.36
2018-06-28T01:29:01.900Z,101354.16
2018-06-28T01:31:30.572Z,101356.17
2018-06-28T01:33:59.161Z,101359.20
2018-06-28T01:36:27.721Z,101357.61
2018-06-28T01:38:56.350Z,101361.14
2018-06-28T01:41:25.253Z,101359.83
2018-06-28T01:43:53.853Z,101352.59
2018-06-28T01:46:22.354Z,101359.52
2018-06-28T01:48:51.334Z,101353.48
2018-06-28T01:51:19.947Z,101356.13
2018-06-28T01:53:48.690Z,101357.36
2018-06-28T01:56:17.347Z,101358.80
2018-06-28T01:58:46.213Z,101354.59
2018-06-28T02:01:14.920Z,101358.97
2018-06-28T02:03:43.529Z,101353.91
2018-06-28T02:06:17.668Z,101354.78
2018-06-28T02:08:46.251Z,101352.84
2018-06-28T02:11:14.891Z,101349.42
2018-06-28T02:13:43.524Z,101351.92
2018-06-28T02:16:12.193Z,101353.27
2018-06-28T02:18:40.863Z,101359.66
2018-06-28T02:21:09.427Z,101360.19
2018-06-28T02:23:38.024Z,101351.06
2018-06-28T02:26:06.611Z,101363.02
2018-06-28T02:28:35.166Z,101361.25
2018-06-28T02:31:03.795Z,101359.98
2018-06-28T02:33:32.489Z,101357.62
2018-06-28T02:36:01.019Z,101354.94
2018-06-28T02:38:29.620Z,101351.98
2018-06-28T02:40:58.311Z,101354.51
2018-06-28T02:43:26.810Z,101355.43
2018-06-28T02:45:55.524Z,101361.13
2018-06-28T02:48:24.230Z,101362.30
2018-06-28T02:50:52.799Z,101360.39
2018-06-28T02:53:21.427Z,101359.56
2018-06-28T02:55:51.423Z,101362.07
2018-06-28T02:58:21.025Z,101352.33
2018-06-28T03:00:49.670Z,101350.86
2018-06-28T03:03:18.473Z,101348.79
2018-06-28T03:05:47.015Z,101359.59
2018-06-28T03:08:15.565Z,101355.74
2018-06-28T03:10:44.075Z,101356.55
2018-06-28T03:13:12.565Z,101360.41
2018-06-28T03:15:41.203Z,101355.23
2018-06-28T03:18:10.096Z,101357.81
2018-06-28T03:20:39.146Z,101359.89
2018-06-28T03:23:07.965Z,101356.00
2018-06-28T03:25:36.815Z,101358.09
2018-06-28T03:28:05.481Z,101352.45
2018-06-28T03:30:34.242Z,101353.22
2018-06-28T03:33:03.254Z,101356.63
2018-06-28T03:35:31.789Z,101357.38
2018-06-28T03:38:00.508Z,101358.50
2018-06-28T03:40:29.052Z,101353.34
2018-06-28T03:42:57.875Z,101349.48
2018-06-28T03:45:26.534Z,101347.30
2018-06-28T03:47:55.164Z,101344.64
2018-06-28T03:50:23.795Z,101347.59
2018-06-28T03:52:52.787Z,101347.20
2018-06-28T03:55:21.927Z,101350.72
2018-06-28T03:57:51.053Z,101346.42
2018-06-28T04:00:19.702Z,101346.03
2018-06-28T04:02:48.329Z,101348.63
2018-06-28T04:05:17.361Z,101350.77
2018-06-28T04:07:45.975Z,101351.17
2018-06-28T04:10:15.383Z,101341.22
2018-06-28T04:12:44.569Z,101348.48
2018-06-28T04:15:13.815Z,101352.27
2018-06-28T04:17:42.780Z,101348.36
2018-06-28T04:20:12.170Z,101348.75
2018-06-28T04:22:41.099Z,101351.20
2018-06-28T04:25:10.032Z,101340.75
2018-06-28T04:27:38.613Z,101352.75
2018-06-28T04:30:07.656Z,101351.91
2018-06-28T04:32:36.519Z,101358.61
2018-06-28T04:35:05.471Z,101366.70
2018-06-28T04:37:34.057Z,101364.43
2018-06-28T04:40:02.748Z,101375.09
2018-06-28T04:42:31.562Z,101364.05
2018-06-28T04:45:00.874Z,101369.26
2018-06-28T04:47:29.525Z,101372.85
2018-06-28T04:49:58.086Z,101364.15
2018-06-28T04:52:26.943Z,101366.05
2018-06-28T04:54:55.766Z,101364.34
2018-06-28T04:57:24.520Z,101364.09
2018-06-28T04:59:53.523Z,101360.16
2018-06-28T05:02:22.399Z,101362.62
2018-06-28T05:04:51.202Z,101362.55
2018-06-28T05:07:20.019Z,101358.19
2018-06-28T05:09:48.579Z,101354.98
2018-06-28T05:12:17.269Z,101355.53
2018-06-28T05:14:45.972Z,101355.84
2018-06-28T05:17:14.651Z,101353.25
2018-06-28T05:19:43.278Z,101348.26
2018-06-28T05:22:12.253Z,101351.51
2018-06-28T05:24:40.883Z,101349.66
2018-06-28T05:27:09.439Z,101350.62
2018-06-28T05:29:38.057Z,101353.07
2018-06-28T05:32:06.884Z,101351.73
2018-06-28T05:34:35.680Z,101347.75
2018-06-28T05:37:04.231Z,101349.20
2018-06-28T05:39:32.967Z,101336.50
2018-06-28T05:42:01.585Z,101347.20
2018-06-28T05:44:30.408Z,101350.70
2018-06-28T05:46:59.019Z,101344.80
2018-06-28T05:49:27.651Z,101347.39
2018-06-28T05:51:56.221Z,101348.81
2018-06-28T05:54:24.759Z,101346.94
2018-06-28T05:56:53.430Z,101353.79
2018-06-28T05:59:23.007Z,101348.95
2018-06-28T06:01:51.848Z,101347.16
2018-06-28T06:04:20.617Z,101343.75
2018-06-28T06:06:49.166Z,101341.64
2018-06-28T06:09:18.099Z,101339.09
2018-06-28T06:11:46.748Z,101329.91
2018-06-28T06:14:15.343Z,101329.09
2018-06-28T06:16:44.147Z,101340.25
2018-06-28T06:19:12.737Z,101338.36
2018-06-28T06:21:41.375Z,101342.13
2018-06-28T06:24:10.113Z,101337.05
2018-06-28T06:26:38.629Z,101330.10
2018-06-28T06:29:07.197Z,101330.61
2018-06-28T06:31:35.837Z,101343.25
2018-06-28T06:34:04.447Z,101335.22
2018-06-28T06:36:33.070Z,101340.44
2018-06-28T06:39:01.797Z,101337.89
2018-06-28T06:41:30.590Z,101335.97
2018-06-28T06:44:00.644Z,101332.53
2018-06-28T06:46:29.217Z,101337.41
2018-06-28T06:48:57.800Z,101332.83
2018-06-28T06:51:26.256Z,101332.52
2018-06-28T06:53:54.877Z,101326.84
2018-06-28T06:56:23.522Z,101330.73
2018-06-28T06:58:52.053Z,101321.48
2018-06-28T07:01:20.591Z,101315.53
2018-06-28T07:03:49.178Z,101310.84
2018-06-28T07:06:17.872Z,101310.98
2018-06-28T07:08:46.550Z,101311.91
2018-06-28T07:11:15.094Z,101308.10
2018-06-28T07:16:18.709Z,101311.59
2018-06-28T07:18:47.327Z,101310.27
2018-06-28T07:21:15.929Z,101318.08
2018-06-28T07:23:44.477Z,101315.81
2018-06-28T07:26:13.120Z,101311.53
2018-06-28T07:28:41.653Z,101308.86
2018-06-28T07:31:10.643Z,101301.06
2018-06-28T07:33:39.133Z,101300.36
2018-06-28T07:36:07.746Z,101301.73
2018-06-28T07:38:36.328Z,101307.48
2018-06-28T07:41:05.043Z,101301.77
2018-06-28T07:43:33.604Z,101296.88
2018-06-28T07:46:02.094Z,101296.40
2018-06-28T07:48:30.707Z,101291.92
2018-06-28T07:50:59.285Z,101291.28
2018-06-28T07:53:27.936Z,101279.12
2018-06-28T07:55:56.438Z,101290.77
2018-06-28T07:58:24.949Z,101284.91
2018-06-28T08:00:53.590Z,101286.73
2018-06-28T08:03:22.173Z,101282.70
2018-06-28T08:05:50.777Z,101286.26
2018-06-28T08:08:19.433Z,101283.45
2018-06-28T08:10:48.064Z,101278.37
2018-06-28T08:13:16.845Z,101282.41
2018-06-28T08:15:45.484Z,101277.63
2018-06-28T08:18:14.067Z,101278.14
2018-06-28T08:20:42.897Z,101283.24
2018-06-28T08:23:11.574Z,101276.73
2018-06-28T08:25:40.439Z,101269.94
2018-06-28T08:28:09.195Z,101276.28
2018-06-28T08:30:37.958Z,101277.00
2018-06-28T08:33:06.706Z,101277.47
2018-06-28T08:35:35.334Z,101287.56
2018-06-28T08:38:04.688Z,101283.70
2018-06-28T08:40:33.237Z,101281.91
2018-06-28T08:43:02.060Z,101269.94
2018-06-28T08:45:30.714Z,101266.44
2018-06-28T08:47:59.348Z,101261.97
2018-06-28T08:50:28.348Z,101268.22
2018-06-28T08:52:57.141Z,101270.92
2018-06-28T08:55:25.763Z,101271.47
2018-06-28T08:57:54.522Z,101266.12
2018-06-28T09:00:23.089Z,101264.39
2018-06-28T09:02:51.912Z,101263.41
2018-06-28T09:05:20.568Z,101259.70
2018-06-28T09:07:49.714Z,101255.95
2018-06-28T09:10:18.434Z,101255.22
2018-06-28T09:12:46.933Z,101255.70
2018-06-28T09:15:15.712Z,101259.70
2018-06-28T09:17:44.269Z,101257.27
2018-06-28T09:20:13.086Z,101255.67
2018-06-28T09:22:41.893Z,101258.20
2018-06-28T09:25:10.503Z,101264.87
2018-06-28T09:27:39.072Z,101252.24
2018-06-28T09:30:08.250Z,101250.53
2018-06-28T09:32:36.970Z,101247.73
2018-06-28T09:35:06.336Z,101246.58
2018-06-28T09:37:34.907Z,101242.02
2018-06-28T09:40:04.430Z,101240.70
2018-06-28T09:42:33.393Z,101233.69
2018-06-28T09:45:01.948Z,101231.73
2018-06-28T09:47:30.521Z,101230.09
2018-06-28T09:49:59.174Z,101233.59
2018-06-28T09:52:27.774Z,101226.75
2018-06-28T09:54:56.301Z,101221.22
2018-06-28T09:57:26.391Z,101218.17
2018-06-28T09:59:54.946Z,101207.52
2018-06-28T10:02:23.591Z,101213.47
2018-06-28T10:04:52.116Z,101214.52
2018-06-28T10:07:20.837Z,101208.86
2018-06-28T10:09:49.574Z,101204.83
2018-06-28T10:12:18.132Z,101201.74
2018-06-28T10:14:46.723Z,101197.55
2018-06-28T10:17:15.364Z,101199.35
2018-06-28T10:19:43.925Z,101194.43
2018-06-28T10:22:12.438Z,101195.32
2018-06-28T10:24:41.113Z,101199.45
2018-06-28T10:27:09.628Z,101190.55
2018-06-28T10:29:43.673Z,101183.75
2018-06-28T10:32:12.261Z,101173.20
2018-06-28T10:34:40.813Z,101171.95
2018-06-28T10:37:09.291Z,101177.47
2018-06-28T10:39:37.770Z,101174.34
2018-06-28T10:42:06.345Z,101166.70
2018-06-28T10:44:34.939Z,101163.04
2018-06-28T10:47:03.564Z,101155.45
2018-06-28T10:49:32.079Z,101157.36
2018-06-28T10:52:00.627Z,101152.13
2018-06-28T10:54:31.311Z,101156.25
2018-06-28T10:56:59.949Z,101160.19
2018-06-28T10:59:28.512Z,101148.77
2018-06-28T11:02:00.035Z,101143.42
2018-06-28T11:04:28.604Z,101136.53
2018-06-28T11:06:57.114Z,101133.49
2018-06-28T11:09:25.614Z,101135.14
2018-06-28T11:11:54.226Z,101133.80
2018-06-28T11:14:23.223Z,101119.77
2018-06-28T11:16:52.100Z,101123.31
2018-06-28T11:19:20.840Z,101121.69
2018-06-28T11:21:49.856Z,101111.72
2018-06-28T11:24:18.572Z,101117.64
2018-06-28T11:26:47.526Z,101121.53
2018-06-28T11:29:16.335Z,101117.69
2018-06-28T11:31:44.813Z,101116.17
2018-06-28T11:34:13.802Z,101114.77
2018-06-28T11:36:42.545Z,101110.16
2018-06-28T11:39:11.787Z,101110.16
2018-06-28T11:41:41.364Z,101099.62
2018-06-28T11:44:10.484Z,101096.06
2018-06-28T11:46:39.135Z,101100.83
2018-06-28T11:49:08.946Z,101096.30
2018-06-28T11:51:37.737Z,101104.52
2018-06-28T11:54:06.363Z,101093.95
2018-06-28T11:56:34.999Z,101094.61
2018-06-28T11:59:03.687Z,101087.49
2018-06-28T12:01:32.405Z,101070.98
2018-06-28T12:04:01.082Z,101069.34
2018-06-28T12:06:31.122Z,101069.89
2018-06-28T12:08:59.795Z,101065.34
2018-06-28T12:11:28.701Z,101065.73
2018-06-28T12:13:57.250Z,101061.92
2018-06-28T12:16:26.010Z,101048.20
2018-06-28T12:18:54.648Z,101046.83
2018-06-28T12:21:23.268Z,101050.80
2018-06-28T12:23:51.799Z,101046.30
2018-06-28T12:26:20.352Z,101032.80
2018-06-28T12:28:49.394Z,101036.86
2018-06-28T12:31:18.037Z,101035.70
2018-06-28T12:33:46.686Z,101038.70
2018-06-28T12:36:15.454Z,101032.84
2018-06-28T12:38:44.011Z,101027.86
2018-06-28T12:41:12.609Z,101024.16
2018-06-28T12:43:41.407Z,101018.30
2018-06-28T12:46:10.040Z,101017.63
2018-06-28T12:48:38.579Z,101015.59
2018-06-28T12:51:07.106Z,101001.60
2018-06-28T12:53:35.722Z,100998.02
2018-06-28T12:56:22.481Z,101000.75
2018-06-28T12:58:52.562Z,100999.55
2018-06-28T13:01:22.347Z,101003.84
2018-06-28T13:03:50.967Z,100981.63
2018-06-28T13:06:20.379Z,100992.87
2018-06-28T13:08:49.011Z,100997.04
2018-06-28T13:11:20.626Z,100990.22
2018-06-28T13:13:49.259Z,100995.61
2018-06-28T13:16:18.766Z,100986.20
2018-06-28T13:18:48.299Z,100992.36
2018-06-28T13:21:17.020Z,100991.06
2018-06-28T13:23:46.146Z,100982.45
2018-06-28T13:26:15.688Z,100973.51
2018-06-28T13:28:45.100Z,100972.91
2018-06-28T13:31:13.787Z,100978.30
2018-06-28T13:33:42.486Z,100965.05
2018-06-28T13:36:11.128Z,100975.66
2018-06-28T13:38:39.808Z,100977.60
2018-06-28T13:41:08.573Z,100972.56
2018-06-28T13:43:37.053Z,100971.95
2018-06-28T13:46:06.104Z,100962.87
2018-06-28T13:48:34.607Z,100952.59
2018-06-28T13:51:03.839Z,100958.45
2018-06-28T13:53:32.713Z,100953.08
2018-06-28T13:56:01.346Z,100950.81
2018-06-28T13:58:29.922Z,100948.52
2018-06-28T14:00:58.582Z,100946.05
2018-06-28T14:03:27.198Z,100938.37
2018-06-28T14:05:55.715Z,100922.50
2018-06-28T14:08:24.339Z,100932.98
2018-06-28T14:10:52.887Z,100934.78
2018-06-28T14:13:21.491Z,100924.90
2018-06-28T14:15:50.053Z,100916.98
2018-06-28T14:18:18.729Z,100919.80
2018-06-28T14:20:47.313Z,100918.20
2018-06-28T14:23:15.890Z,100927.08
2018-06-28T14:25:44.558Z,100921.31
2018-06-28T14:28:13.060Z,100910.66
2018-06-28T14:30:41.612Z,100907.55
2018-06-28T14:33:10.365Z,100912.21
2018-06-28T14:35:38.960Z,100903.12
2018-06-28T14:38:08.285Z,100896.88
2018-06-28T14:40:36.891Z,100891.68
2018-06-28T14:43:05.697Z,100886.16
2018-06-28T14:45:34.157Z,100888.22
2018-06-28T14:48:02.761Z,100894.75
2018-06-28T14:50:31.291Z,100889.11
2018-06-28T14:52:59.798Z,100890.26
2018-06-28T14:55:28.446Z,100891.41
2018-06-28T14:57:57.099Z,100882.69
2018-06-28T15:00:25.551Z,100876.72
2018-06-28T15:02:54.086Z,100890.31
2018-06-28T15:05:22.635Z,100883.85
2018-06-28T15:07:51.948Z,100885.81
2018-06-28T15:10:20.536Z,100886.74
2018-06-28T15:12:49.045Z,100875.59
2018-06-28T15:15:18.588Z,100876.23
2018-06-28T15:17:47.249Z,100872.72
2018-06-28T15:20:16.242Z,100867.91
2018-06-28T15:22:44.780Z,100857.66
2018-06-28T15:25:13.321Z,100868.94
2018-06-28T15:27:42.334Z,100856.39
2018-06-28T15:30:10.942Z,100856.22
2018-06-28T15:32:41.177Z,100852.56
2018-06-28T15:35:09.685Z,100848.66
2018-06-28T15:37:38.249Z,100855.56
2018-06-28T15:40:06.897Z,100855.95
2018-06-28T15:42:36.678Z,100860.32
2018-06-28T15:45:05.348Z,100856.30
2018-06-28T15:47:33.933Z,100849.67
2018-06-28T15:50:02.516Z,100847.73
2018-06-28T15:52:31.218Z,100845.42
2018-06-28T15:54:59.883Z,100839.06
2018-06-28T15:57:28.454Z,100845.25
2018-06-28T15:59:56.998Z,100843.95
2018-06-28T16:02:25.583Z,100840.90
2018-06-28T16:04:54.141Z,100840.44
2018-06-28T16:07:22.666Z,100845.02
2018-06-28T16:09:51.269Z,100845.51
2018-06-28T16:12:19.848Z,100841.56
2018-06-28T16:14:48.433Z,100831.69
2018-06-28T16:17:17.081Z,100828.34
2018-06-28T16:19:45.576Z,100821.45
2018-06-28T16:22:14.205Z,100826.89
2018-06-28T16:24:42.894Z,100822.38
2018-06-28T16:27:11.445Z,100838.25
2018-06-28T16:29:40.145Z,100825.19
2018-06-28T16:32:08.689Z,100820.09
2018-06-28T16:34:37.415Z,100822.98
2018-06-28T16:37:06.088Z,100819.61
2018-06-28T16:39:34.870Z,100815.66
2018-06-28T16:42:03.327Z,100813.31
2018-06-28T16:44:31.948Z,100814.73
2018-06-28T16:47:00.573Z,100817.84
2018-06-28T16:49:29.160Z,100813.42
2018-06-28T16:51:57.882Z,100812.10
2018-06-28T16:54:26.507Z,100805.16
2018-06-28T16:56:55.364Z,100811.46
2018-06-28T16:59:23.906Z,100809.95
2018-06-28T17:01:52.751Z,100810.55
2018-06-28T17:04:21.291Z,100806.49
2018-06-28T17:06:49.830Z,100800.81
2018-06-28T17:09:18.529Z,100799.56
2018-06-28T17:11:47.203Z,100803.73
2018-06-28T17:14:15.746Z,100806.02
2018-06-28T17:16:44.319Z,100806.25
2018-06-28T17:19:13.225Z,100801.10
2018-06-28T17:21:42.303Z,100797.88
2018-06-28T17:24:11.285Z,100805.91
2018-06-28T17:26:40.383Z,100807.11
2018-06-28T17:29:09.210Z,100809.63
2018-06-28T17:31:37.740Z,100801.38
2018-06-28T17:34:06.565Z,100793.78
2018-06-28T17:36:35.184Z,100792.81
2018-06-28T17:39:04.330Z,100794.35
2018-06-28T17:41:33.258Z,100793.55
2018-06-28T17:44:01.835Z,100794.61
2018-06-28T17:46:30.449Z,100796.78
2018-06-28T17:48:59.413Z,100790.92
2018-06-28T17:51:28.312Z,100792.47
2018-06-28T17:53:57.238Z,100786.77
2018-06-28T17:56:25.822Z,100787.73
2018-06-28T17:58:54.677Z,100785.10
2018-06-28T18:01:23.174Z,100786.03
2018-06-28T18:03:51.720Z,100783.41
2018-06-28T18:06:20.243Z,100782.36
2018-06-28T18:08:48.760Z,100788.81
2018-06-28T18:11:17.418Z,100785.70
2018-06-28T18:13:46.342Z,100784.48
2018-06-28T18:16:14.861Z,100791.05
2018-06-28T18:18:43.598Z,100797.36
2018-06-28T18:21:12.438Z,100798.92
2018-06-28T18:23:41.163Z,100786.39
2018-06-28T18:26:09.985Z,100796.66
2018-06-28T18:28:38.700Z,100791.17
2018-06-28T18:31:07.358Z,100789.14
2018-06-28T18:33:36.184Z,100793.33
2018-06-28T18:36:05.016Z,100792.61
2018-06-28T18:38:33.851Z,100796.91
2018-06-28T18:41:02.703Z,100802.16
2018-06-28T18:43:31.547Z,100801.53
2018-06-28T18:46:00.086Z,100793.08
2018-06-28T18:48:29.208Z,100793.55
2018-06-28T18:50:58.243Z,100793.18
2018-06-28T18:53:26.754Z,100799.95
2018-06-28T18:55:55.504Z,100800.86
2018-06-28T18:58:24.018Z,100798.70
2018-06-28T19:00:52.522Z,100804.19
2018-06-28T19:03:21.343Z,100802.75
2018-06-28T19:05:50.451Z,100808.20
2018-06-28T19:08:19.053Z,100806.86
2018-06-28T19:10:53.515Z,100810.55
2018-06-28T19:13:23.143Z,100805.52
2018-06-28T19:15:56.917Z,100808.73
2018-06-28T19:18:25.730Z,100808.11
2018-06-28T19:20:59.746Z,100808.10
2018-06-28T19:23:33.553Z,100810.92
2018-06-28T19:26:02.261Z,100814.23
2018-06-28T19:28:30.826Z,100816.13
2018-06-28T19:31:05.028Z,100820.16
2018-06-28T19:33:34.015Z,100816.39
2018-06-28T19:36:02.614Z,100819.87
2018-06-28T19:38:36.359Z,100824.63
2018-06-28T19:41:10.149Z,100827.67
2018-06-28T19:43:38.649Z,100827.60
2018-06-28T19:46:07.218Z,100827.30
2018-06-28T19:48:35.802Z,100833.92
2018-06-28T19:51:10.124Z,100836.23
2018-06-28T19:53:38.922Z,100835.78
2018-06-28T19:56:07.481Z,100841.19
2018-06-28T19:58:36.199Z,100840.48
2018-06-28T20:01:09.892Z,100850.33
2018-06-28T20:03:43.924Z,100851.00
2018-06-28T20:06:12.484Z,100847.48
2018-06-28T20:08:41.214Z,100850.33
2018-06-28T20:11:10.044Z,100856.35
2018-06-28T20:13:43.889Z,100863.67
2018-06-28T20:16:17.595Z,100868.27
2018-06-28T20:18:51.381Z,100871.72
2018-06-28T20:21:19.958Z,100869.92
2018-06-28T20:23:48.704Z,100867.05
2018-06-28T20:26:22.481Z,100868.44
2018-06-28T20:28:56.776Z,100865.07
2018-06-28T20:31:30.682Z,100861.82
2018-06-28T20:34:04.545Z,100865.70
2018-06-28T20:36:33.076Z,100867.31
2018-06-28T20:39:01.626Z,100864.58
2018-06-28T20:41:32.563Z,100861.79
2018-06-28T20:44:04.702Z,100865.91
2018-06-28T20:46:34.419Z,100859.28
2018-06-28T20:49:03.838Z,100860.97
2018-06-28T20:51:34.521Z,100860.32
2018-06-28T20:54:05.067Z,100857.91
2018-06-28T20:56:35.105Z,100862.48
2018-06-28T20:59:04.987Z,100866.84
2018-06-28T21:01:34.723Z,100868.08
2018-06-28T21:04:03.710Z,100862.66
2018-06-28T21:06:34.440Z,100859.88
2018-06-28T21:09:02.999Z,100860.52
2018-06-28T21:11:36.044Z,100861.81
2018-06-28T21:14:06.440Z,100852.38
2018-06-28T21:16:35.004Z,100855.79
2018-06-28T21:19:03.494Z,100852.22
2018-06-28T21:21:32.229Z,100859.96
2018-06-28T21:24:06.099Z,100854.08
2018-06-28T21:26:35.518Z,100860.34
2018-06-28T21:29:07.122Z,100859.50
2018-06-28T21:31:37.369Z,100861.08
2018-06-28T21:34:06.791Z,100855.81
2018-06-28T21:36:35.716Z,100855.97
2018-06-28T21:39:14.321Z,100863.21
2018-06-28T21:41:48.239Z,100861.23
2018-06-28T21:44:16.795Z,100862.20
2018-06-28T21:46:48.023Z,100858.84
2018-06-28T21:49:16.623Z,100860.67
2018-06-28T21:51:47.024Z,100864.01
2018-06-28T21:54:17.791Z,100857.41
2018-06-28T21:56:47.406Z,100863.63
2018-06-28T21:59:18.243Z,100870.11
2018-06-28T22:01:52.690Z,100871.13
2018-06-28T22:04:22.955Z,100864.22
2018-06-28T22:06:52.899Z,100863.50
2018-06-28T22:09:21.597Z,100869.91
2018-06-28T22:11:50.140Z,100867.63
2018-06-28T22:14:18.975Z,100862.96
2018-06-28T22:16:47.768Z,100866.58
2018-06-28T22:19:16.834Z,100862.45
2018-06-28T22:21:45.662Z,100861.95
2018-06-28T22:24:14.283Z,100864.47
2018-06-28T22:26:43.305Z,100856.98
2018-06-28T22:29:11.933Z,100871.47
2018-06-28T22:31:40.574Z,100871.78
2018-06-28T22:34:09.748Z,100867.30
2018-06-28T22:36:38.262Z,100860.53
2018-06-28T22:39:08.889Z,100862.81
2018-06-28T22:41:37.776Z,100864.81
2018-06-28T22:44:06.333Z,100858.92
2018-06-28T22:46:35.107Z,100858.50
2018-06-28T22:49:04.253Z,100864.53
2018-06-28T22:51:33.234Z,100862.48
2018-06-28T22:54:02.035Z,100873.95
2018-06-28T22:56:30.965Z,100866.28
2018-06-28T22:58:59.629Z,100870.58
2018-06-28T23:01:28.400Z,100867.29
2018-06-28T23:03:57.201Z,100868.36
2018-06-28T23:06:25.921Z,100873.02
2018-06-28T23:08:54.576Z,100874.48
2018-06-28T23:11:23.182Z,100870.28
2018-06-28T23:13:51.930Z,100873.01
2018-06-28T23:16:20.709Z,100873.78
2018-06-28T23:18:49.319Z,100870.05
2018-06-28T23:21:17.959Z,100864.91
2018-06-28T23:23:46.890Z,100865.03
2018-06-28T23:26:15.411Z,100865.13
2018-06-28T23:28:44.042Z,100861.80
2018-06-28T23:31:12.501Z,100863.39
2018-06-28T23:33:41.105Z,100861.09
2018-06-28T23:36:10.047Z,100862.02
2018-06-28T23:38:38.647Z,100864.97
2018-06-28T23:41:07.191Z,100858.84
2018-06-28T23:43:35.888Z,100854.77
2018-06-28T23:46:04.946Z,100858.20
2018-06-28T23:48:33.537Z,100852.14
2018-06-28T23:51:02.290Z,100858.88
2018-06-28T23:53:30.695Z,100862.00
2018-06-28T23:55:59.235Z,100864.53
2018-06-28T23:58:27.841Z,100860.09
